Time;durP1;ratioP1;P1;durP2;ratioP2;P2;SDS_P1;SDS_P2;PMS_P1;PMS_P2;Temp;Humidity;BMP_temperature;BMP_pressure;BME280_temperature;BME280_humidity;BME280_pressure;Samples;Min_cycle;Max_cycle;Signal;HPM_P1;HPM_P2
2023/07/19 00:01:10;;;;;;;2.00;1.80;;;;;;;;;;4932162;29;20545;-69
2023/07/19 00:03:36;;;;;;;4.30;2.00;;;;;;;;;;4933634;29;20039;-69
2023/07/19 00:06:02;;;;;;;6.22;2.33;;;;;;;;;;4933339;29;20180;-69
2023/07/19 00:08:30;;;;;;;2.00;1.90;;;;;;;;;;4933582;29;20537;-69
2023/07/19 00:10:56;;;;;;;3.90;2.10;;;;;;;;;;4933279;29;20042;-68
2023/07/19 00:13:22;;;;;;;2.15;1.95;;;;;;;;;;4933518;29;20040;-69
2023/07/19 00:15:48;;;;;;;2.15;2.00;;;;;;;;;;4933274;29;20035;-69
2023/07/19 00:18:14;;;;;;;2.72;2.20;;;;;;;;;;4933802;29;20044;-70
2023/07/19 00:20:40;;;;;;;4.57;2.38;;;;;;;;;;4933766;29;20583;-69
2023/07/19 00:23:07;;;;;;;3.92;2.10;;;;;;;;;;4933005;29;20036;-68
2023/07/19 00:25:33;;;;;;;3.72;1.92;;;;;;;;;;4933260;29;20027;-69
2023/07/19 00:27:59;;;;;;;2.67;2.17;;;;;;;;;;4933116;29;20098;-70
2023/07/19 00:30:27;;;;;;;5.45;2.30;;;;;;;;;;4933267;29;20048;-70
2023/07/19 00:32:53;;;;;;;3.63;1.90;;;;;;;;;;4933061;29;20119;-68
2023/07/19 00:35:19;;;;;;;2.47;2.28;;;;;;;;;;4933341;29;20512;-69
2023/07/19 00:37:46;;;;;;;2.58;2.10;;;;;;;;;;4933080;29;20043;-68
2023/07/19 00:40:12;;;;;;;2.13;2.03;;;;;;;;;;4932811;29;20111;-68
2023/07/19 00:42:38;;;;;;;2.35;2.10;;;;;;;;;;4932962;29;20494;-69
2023/07/19 00:45:04;;;;;;;3.53;2.63;;;;;;;;;;4932935;29;20098;-69
2023/07/19 00:47:32;;;;;;;4.70;2.58;;;;;;;;;;4933007;29;20118;-69
2023/07/19 00:49:59;;;;;;;3.03;2.65;;;;;;;;;;4931548;29;20089;-67
2023/07/19 00:52:25;;;;;;;2.50;2.30;;;;;;;;;;4931595;29;20044;-68
2023/07/19 00:54:51;;;;;;;2.72;2.55;;;;;;;;;;4932423;29;20071;-68
2023/07/19 00:57:18;;;;;;;3.80;2.60;;;;;;;;;;4932855;29;20046;-69
2023/07/19 00:59:43;;;;;;;2.65;2.45;;;;;;;;;;4931632;29;20044;-69
2023/07/19 01:02:10;;;;;;;3.03;2.83;;;;;;;;;;4933856;29;20036;-70
2023/07/19 01:04:36;;;;;;;3.53;2.50;;;;;;;;;;4936845;29;20032;-69
2023/07/19 01:07:03;;;;;;;5.05;3.08;;;;;;;;;;4935273;29;20055;-69
2023/07/19 01:09:29;;;;;;;3.92;2.80;;;;;;;;;;4919617;29;20028;-69
2023/07/19 01:11:55;;;;;;;5.10;2.67;;;;;;;;;;4936622;29;20114;-69
2023/07/19 01:14:20;;;;;;;2.97;2.78;;;;;;;;;;4935507;29;20413;-68
2023/07/19 01:16:46;;;;;;;3.00;2.75;;;;;;;;;;4935322;29;20170;-69
2023/07/19 01:19:12;;;;;;;2.70;2.50;;;;;;;;;;4936103;29;20047;-68
2023/07/19 01:21:39;;;;;;;4.13;3.10;;;;;;;;;;4935196;29;20048;-69
2023/07/19 01:24:07;;;;;;;3.20;2.90;;;;;;;;;;4936269;29;20059;-69
2023/07/19 01:26:33;;;;;;;5.47;3.10;;;;;;;;;;4936339;29;20510;-68
2023/07/19 01:29:00;;;;;;;6.97;3.42;;;;;;;;;;4936128;29;20050;-68
2023/07/19 01:31:26;;;;;;;4.55;4.10;;;;;;;;;;4936169;29;20119;-68
2023/07/19 01:33:54;;;;;;;5.63;4.10;;;;;;;;;;4936075;29;20134;-68
2023/07/19 01:36:21;;;;;;;4.50;4.10;;;;;;;;;;4936310;29;20499;-67
2023/07/19 01:38:47;;;;;;;5.72;4.70;;;;;;;;;;4936107;29;20050;-68
2023/07/19 01:41:14;;;;;;;3.33;3.00;;;;;;;;;;4934719;29;20039;-67
2023/07/19 01:43:40;;;;;;;3.67;3.17;;;;;;;;;;4937363;29;20483;-70
2023/07/19 01:46:06;;;;;;;6.25;2.90;;;;;;;;;;4946439;28;20039;-68
2023/07/19 01:48:33;;;;;;;2.85;2.65;;;;;;;;;;4955035;28;20039;-69
2023/07/19 01:50:59;;;;;;;3.28;3.00;;;;;;;;;;4953766;29;20089;-68
2023/07/19 01:53:26;;;;;;;6.13;3.28;;;;;;;;;;4953778;29;20046;-68
2023/07/19 01:55:55;;;;;;;5.03;2.63;;;;;;;;;;4953563;29;20375;-68
2023/07/19 01:58:21;;;;;;;1.40;1.30;;;;;;;;;;4953793;29;20048;-67
2023/07/19 02:00:47;;;;;;;1.60;1.50;;;;;;;;;;4953727;29;20051;-68
2023/07/19 02:03:13;;;;;;;1.98;1.30;;;;;;;;;;4954658;29;20043;-67
2023/07/19 02:05:39;;;;;;;4.30;1.30;;;;;;;;;;4954902;29;20062;-67
2023/07/19 02:08:05;;;;;;;0.85;0.85;;;;;;;;;;4953370;29;20031;-67
2023/07/19 02:10:33;;;;;;;0.70;0.70;;;;;;;;;;4954813;28;20039;-67
2023/07/19 02:13:01;;;;;;;1.55;1.52;;;;;;;;;;4954123;28;20130;-67
2023/07/19 02:15:28;;;;;;;1.33;1.23;;;;;;;;;;4954982;28;20031;-68
2023/07/19 02:17:54;;;;;;;1.83;1.73;;;;;;;;;;4954874;28;20490;-67
2023/07/19 02:20:47;;;;;;;1.65;1.55;;;;;;;;;;4953713;29;20047;-67
2023/07/19 02:23:13;;;;;;;1.08;1.02;;;;;;;;;;4954147;28;20066;-68
2023/07/19 02:25:40;;;;;;;3.20;1.45;;;;;;;;;;4953197;29;20187;-69
2023/07/19 02:28:07;;;;;;;2.35;0.95;;;;;;;;;;4954202;28;20074;-68
2023/07/19 02:30:33;;;;;;;0.75;0.75;;;;;;;;;;4953167;29;20120;-69
2023/07/19 02:32:59;;;;;;;1.65;0.73;;;;;;;;;;4952989;29;20118;-68
2023/07/19 02:35:25;;;;;;;0.43;0.43;;;;;;;;;;4954338;28;20502;-69
2023/07/19 02:37:51;;;;;;;1.55;0.70;;;;;;;;;;4954211;29;20102;-69
2023/07/19 02:40:17;;;;;;;0.70;0.70;;;;;;;;;;4954073;28;20098;-68
2023/07/19 02:42:45;;;;;;;0.98;0.98;;;;;;;;;;4954178;28;20097;-68
2023/07/19 02:45:11;;;;;;;0.80;0.80;;;;;;;;;;4953984;28;20035;-67
2023/07/19 02:47:37;;;;;;;1.58;0.80;;;;;;;;;;4954065;29;20035;-70
2023/07/19 02:50:03;;;;;;;0.80;0.80;;;;;;;;;;4952755;29;20413;-67
2023/07/19 02:52:31;;;;;;;0.68;0.68;;;;;;;;;;4952621;29;20039;-68
2023/07/19 02:54:57;;;;;;;0.93;0.75;;;;;;;;;;4953710;29;20102;-67
2023/07/19 02:57:23;;;;;;;0.90;0.90;;;;;;;;;;4952762;29;20067;-66
2023/07/19 02:59:49;;;;;;;0.75;0.75;;;;;;;;;;4954045;29;20126;-67
2023/07/19 03:02:15;;;;;;;1.50;1.00;;;;;;;;;;4953619;29;20585;-68
2023/07/19 03:04:40;;;;;;;0.93;0.93;;;;;;;;;;4952914;28;20415;-67
2023/07/19 03:07:07;;;;;;;0.95;0.90;;;;;;;;;;4938440;29;20036;-66
2023/07/19 03:09:33;;;;;;;0.98;0.80;;;;;;;;;;4954872;28;20039;-67
2023/07/19 03:11:59;;;;;;;0.40;0.40;;;;;;;;;;4955291;28;20558;-68
2023/07/19 03:14:26;;;;;;;0.68;0.65;;;;;;;;;;4954319;29;20035;-68
2023/07/19 03:16:52;;;;;;;0.90;0.90;;;;;;;;;;4954860;28;20122;-67
2023/07/19 03:19:18;;;;;;;0.60;0.60;;;;;;;;;;4950489;29;20589;-67
2023/07/19 03:21:45;;;;;;;0.80;0.80;;;;;;;;;;4943288;29;20039;-67
2023/07/19 03:24:12;;;;;;;1.25;0.70;;;;;;;;;;4941393;28;20043;-66
2023/07/19 03:26:38;;;;;;;0.80;0.80;;;;;;;;;;4937257;29;20071;-67
2023/07/19 03:29:04;;;;;;;1.00;0.70;;;;;;;;;;4953603;28;20035;-66
2023/07/19 03:31:30;;;;;;;0.90;0.90;;;;;;;;;;4920364;29;20561;-67
2023/07/19 03:33:57;;;;;;;1.20;0.80;;;;;;;;;;4953500;28;20031;-68
2023/07/19 03:36:23;;;;;;;1.27;1.00;;;;;;;;;;4941069;28;20032;-68
2023/07/19 03:38:49;;;;;;;0.88;0.88;;;;;;;;;;4938966;29;20040;-67
2023/07/19 03:41:15;;;;;;;1.35;1.00;;;;;;;;;;4935789;29;20036;-67
2023/07/19 03:43:42;;;;;;;1.08;1.08;;;;;;;;;;4916582;29;20082;-67
2023/07/19 03:46:08;;;;;;;0.70;0.70;;;;;;;;;;4932684;29;20054;-67
2023/07/19 03:48:37;;;;;;;1.08;1.00;;;;;;;;;;4932474;29;20032;-67
2023/07/19 03:51:04;;;;;;;0.73;0.73;;;;;;;;;;4932167;29;20048;-68
2023/07/19 03:53:32;;;;;;;0.90;0.90;;;;;;;;;;4932903;29;20047;-67
2023/07/19 03:55:59;;;;;;;1.48;0.85;;;;;;;;;;4932419;29;20062;-68
2023/07/19 03:58:25;;;;;;;2.97;1.00;;;;;;;;;;4932267;29;20107;-67
2023/07/19 04:00:52;;;;;;;1.15;1.05;;;;;;;;;;4932320;29;20041;-68
2023/07/19 04:03:18;;;;;;;0.80;0.80;;;;;;;;;;4932007;29;20043;-68
2023/07/19 04:05:44;;;;;;;0.60;0.60;;;;;;;;;;4930697;29;20095;-68
2023/07/19 04:08:11;;;;;;;0.68;0.68;;;;;;;;;;4935864;29;20465;-66
2023/07/19 04:10:37;;;;;;;0.90;0.90;;;;;;;;;;4966764;28;20172;-70
2023/07/19 04:13:04;;;;;;;0.73;0.73;;;;;;;;;;4952404;28;20067;-68
2023/07/19 04:15:32;;;;;;;0.90;0.90;;;;;;;;;;4952564;28;20043;-70
2023/07/19 04:17:58;;;;;;;1.35;1.35;;;;;;;;;;4952619;28;20046;-68
2023/07/19 04:20:25;;;;;;;1.10;1.10;;;;;;;;;;4931040;29;20429;-69
2023/07/19 04:22:51;;;;;;;0.80;0.80;;;;;;;;;;4942878;29;20594;-69
2023/07/19 04:25:18;;;;;;;0.95;0.95;;;;;;;;;;4937378;29;20090;-70
2023/07/19 04:27:46;;;;;;;1.08;1.00;;;;;;;;;;4930951;29;20067;-69
2023/07/19 04:30:13;;;;;;;1.98;0.93;;;;;;;;;;4944993;29;20043;-68
2023/07/19 04:32:39;;;;;;;1.60;1.50;;;;;;;;;;4947995;29;20036;-70
2023/07/19 04:35:06;;;;;;;1.27;1.20;;;;;;;;;;4934366;29;20035;-69
2023/07/19 04:37:33;;;;;;;1.50;1.40;;;;;;;;;;4933695;29;20043;-69
2023/07/19 04:39:59;;;;;;;1.25;1.13;;;;;;;;;;4932488;29;20047;-68
2023/07/19 04:42:26;;;;;;;1.20;1.20;;;;;;;;;;4947686;29;20040;-69
2023/07/19 04:44:53;;;;;;;1.98;1.88;;;;;;;;;;4933305;29;20046;-68
2023/07/19 04:47:20;;;;;;;2.38;2.20;;;;;;;;;;4932641;29;20175;-69
2023/07/19 04:49:46;;;;;;;1.20;1.20;;;;;;;;;;4948133;29;20035;-69
2023/07/19 04:52:12;;;;;;;2.40;2.25;;;;;;;;;;4933011;29;20036;-69
2023/07/19 04:54:39;;;;;;;2.13;2.03;;;;;;;;;;4932466;29;20059;-69
2023/07/19 04:57:05;;;;;;;2.20;2.10;;;;;;;;;;4932081;29;20044;-70
2023/07/19 04:59:32;;;;;;;2.58;2.40;;;;;;;;;;4948823;29;20050;-70
2023/07/19 05:01:58;;;;;;;3.22;2.67;;;;;;;;;;4931666;29;20040;-70
2023/07/19 05:04:24;;;;;;;2.20;2.10;;;;;;;;;;4900015;29;20038;-69
2023/07/19 05:06:50;;;;;;;1.88;1.88;;;;;;;;;;4915755;29;20988;-70
2023/07/19 05:09:17;;;;;;;2.00;1.90;;;;;;;;;;4932541;29;20063;-69
2023/07/19 05:11:44;;;;;;;1.77;1.73;;;;;;;;;;4947411;29;20529;-69
2023/07/19 05:14:10;;;;;;;2.35;2.15;;;;;;;;;;4931349;29;20040;-69
2023/07/19 05:16:37;;;;;;;2.20;1.70;;;;;;;;;;4931708;29;20119;-69
2023/07/19 05:19:03;;;;;;;2.38;1.98;;;;;;;;;;4931422;29;20044;-69
2023/07/19 05:21:30;;;;;;;2.10;2.00;;;;;;;;;;4931554;29;20414;-69
2023/07/19 05:23:56;;;;;;;1.60;1.50;;;;;;;;;;4931777;29;20126;-69
2023/07/19 05:26:24;;;;;;;1.40;1.40;;;;;;;;;;4947601;29;20510;-69
2023/07/19 05:28:50;;;;;;;1.83;1.73;;;;;;;;;;4931632;29;20086;-69
2023/07/19 05:31:16;;;;;;;1.48;1.48;;;;;;;;;;4932332;29;20067;-70
2023/07/19 05:33:42;;;;;;;1.42;1.42;;;;;;;;;;4933030;29;20125;-70
2023/07/19 05:36:09;;;;;;;1.35;1.35;;;;;;;;;;4931753;29;20035;-69
2023/07/19 05:38:35;;;;;;;1.55;1.45;;;;;;;;;;4933020;29;20047;-70
2023/07/19 05:41:04;;;;;;;2.00;1.90;;;;;;;;;;4933205;29;20530;-69
2023/07/19 05:43:31;;;;;;;1.25;1.25;;;;;;;;;;4931895;29;20466;-69
2023/07/19 05:46:06;;;;;;;2.78;1.23;;;;;;;;;;4933227;29;20047;-69
2023/07/19 05:48:32;;;;;;;2.03;1.58;;;;;;;;;;4936110;29;20065;-69
2023/07/19 05:51:02;;;;;;;1.83;1.73;;;;;;;;;;4937530;29;20035;-69
2023/07/19 05:53:28;;;;;;;1.95;1.85;;;;;;;;;;4935954;29;20543;-69
2023/07/19 05:55:54;;;;;;;2.25;1.67;;;;;;;;;;4936145;29;20060;-68
2023/07/19 05:58:21;;;;;;;1.80;1.70;;;;;;;;;;4936416;29;20032;-68
2023/07/19 06:00:47;;;;;;;1.75;1.70;;;;;;;;;;4952051;29;20406;-70
2023/07/19 06:03:14;;;;;;;1.70;1.60;;;;;;;;;;4936019;29;20039;-69
2023/07/19 06:05:40;;;;;;;1.67;1.67;;;;;;;;;;4935970;29;20031;-68
2023/07/19 06:08:06;;;;;;;2.17;1.98;;;;;;;;;;4935729;29;20376;-70
2023/07/19 06:10:32;;;;;;;2.28;2.08;;;;;;;;;;4935507;29;20043;-68
2023/07/19 06:12:58;;;;;;;2.28;2.10;;;;;;;;;;4934224;29;20042;-69
2023/07/19 06:15:24;;;;;;;1.50;1.40;;;;;;;;;;4934510;29;20134;-70
2023/07/19 06:17:50;;;;;;;2.22;2.00;;;;;;;;;;4935700;29;20171;-70
2023/07/19 06:20:16;;;;;;;2.47;2.28;;;;;;;;;;4935744;29;20043;-69
2023/07/19 06:22:43;;;;;;;1.77;1.67;;;;;;;;;;4935787;29;20191;-68
2023/07/19 06:25:10;;;;;;;2.50;2.40;;;;;;;;;;4935866;29;20050;-70
2023/07/19 06:27:36;;;;;;;2.20;2.08;;;;;;;;;;4935598;29;20043;-69
2023/07/19 06:30:02;;;;;;;1.95;1.85;;;;;;;;;;4935937;29;20042;-71
2023/07/19 06:32:32;;;;;;;;;;;;;;;;;;4936113;29;20126;-69
2023/07/19 06:34:58;;;;;;;2.15;1.67;;;;;;;;;;4935290;29;20022;-69
2023/07/19 06:37:24;;;;;;;2.28;2.17;;;;;;;;;;4935151;29;20118;-69
2023/07/19 06:39:50;;;;;;;1.52;1.52;;;;;;;;;;4935133;29;20510;-70
2023/07/19 06:42:16;;;;;;;2.00;1.90;;;;;;;;;;4934930;29;20122;-70
2023/07/19 06:44:42;;;;;;;2.65;2.20;;;;;;;;;;4935223;29;20106;-70
2023/07/19 06:47:08;;;;;;;2.60;2.42;;;;;;;;;;4935114;29;20503;-68
2023/07/19 06:49:34;;;;;;;2.25;2.15;;;;;;;;;;4933712;29;20563;-70
2023/07/19 06:52:01;;;;;;;2.13;2.03;;;;;;;;;;4935090;29;20127;-70
2023/07/19 06:54:27;;;;;;;2.17;2.08;;;;;;;;;;4949064;29;20094;-69
2023/07/19 06:56:53;;;;;;;2.30;2.08;;;;;;;;;;4935009;29;20040;-69
2023/07/19 06:59:19;;;;;;;2.67;2.47;;;;;;;;;;4933411;29;20079;-69
2023/07/19 07:01:45;;;;;;;2.92;2.47;;;;;;;;;;4935029;29;20070;-69
2023/07/19 07:04:11;;;;;;;2.38;2.28;;;;;;;;;;4934672;29;20095;-69
2023/07/19 07:06:38;;;;;;;5.13;2.40;;;;;;;;;;4949632;29;20524;-70
2023/07/19 07:09:04;;;;;;;2.67;2.47;;;;;;;;;;4934802;29;20059;-68
2023/07/19 07:11:29;;;;;;;2.30;2.20;;;;;;;;;;4934883;29;20078;-70
2023/07/19 07:13:56;;;;;;;2.92;2.00;;;;;;;;;;4933221;29;20036;-69
2023/07/19 07:16:22;;;;;;;2.30;2.20;;;;;;;;;;4934436;29;20036;-70
2023/07/19 07:18:47;;;;;;;3.97;2.60;;;;;;;;;;4934303;29;20042;-69
2023/07/19 07:21:14;;;;;;;3.38;2.30;;;;;;;;;;4934459;29;20048;-72
2023/07/19 07:23:41;;;;;;;2.42;2.33;;;;;;;;;;4934442;29;20099;-70
2023/07/19 07:26:07;;;;;;;3.75;2.90;;;;;;;;;;4934429;29;20418;-69
2023/07/19 07:28:33;;;;;;;2.53;2.42;;;;;;;;;;4933893;29;20042;-69
2023/07/19 07:31:09;;;;;;;2.75;2.50;;;;;;;;;;4934298;29;20063;-69
2023/07/19 07:33:35;;;;;;;3.67;3.38;;;;;;;;;;4933947;29;20035;-69
2023/07/19 07:36:01;;;;;;;2.65;2.45;;;;;;;;;;4932825;29;20075;-69
2023/07/19 07:38:27;;;;;;;3.00;2.80;;;;;;;;;;4933813;29;20039;-68
2023/07/19 07:41:00;;;;;;;3.15;3.03;;;;;;;;;;4933816;29;20059;-70
2023/07/19 07:43:26;;;;;;;2.60;2.40;;;;;;;;;;4933712;29;20517;-70
2023/07/19 07:45:55;;;;;;;2.88;2.78;;;;;;;;;;4933843;29;20130;-69
2023/07/19 07:48:24;;;;;;;4.05;3.22;;;;;;;;;;4933543;29;20446;-69
2023/07/19 07:50:51;;;;;;;3.00;2.80;;;;;;;;;;4933885;29;20044;-69
2023/07/19 07:53:18;;;;;;;3.28;3.08;;;;;;;;;;4933608;29;20039;-69
2023/07/19 07:55:44;;;;;;;3.03;2.80;;;;;;;;;;4933660;29;20060;-69
2023/07/19 07:58:11;;;;;;;3.10;2.90;;;;;;;;;;4933820;29;20039;-68
2023/07/19 08:00:37;;;;;;;2.40;2.30;;;;;;;;;;4932332;29;20534;-69
2023/07/19 08:03:03;;;;;;;2.70;2.60;;;;;;;;;;4933666;29;20036;-69
2023/07/19 08:05:31;;;;;;;3.10;2.90;;;;;;;;;;4933436;29;20047;-69
2023/07/19 08:07:57;;;;;;;2.42;2.33;;;;;;;;;;4932272;29;20039;-69
2023/07/19 08:10:23;;;;;;;2.88;2.72;;;;;;;;;;4933338;29;20409;-69
2023/07/19 08:12:49;;;;;;;3.88;3.63;;;;;;;;;;4933395;29;20032;-69
2023/07/19 08:15:15;;;;;;;3.50;3.20;;;;;;;;;;4933489;29;20537;-71
2023/07/19 08:17:41;;;;;;;3.03;2.70;;;;;;;;;;4933129;29;20039;-68
2023/07/19 08:20:09;;;;;;;3.35;3.05;;;;;;;;;;4933402;29;20051;-68
2023/07/19 08:22:36;;;;;;;2.67;2.58;;;;;;;;;;4932889;29;20032;-69
2023/07/19 08:25:02;;;;;;;3.08;2.88;;;;;;;;;;4933858;29;20122;-68
2023/07/19 08:27:30;;;;;;;3.00;2.80;;;;;;;;;;4931987;29;20040;-69
2023/07/19 08:29:56;;;;;;;4.78;2.78;;;;;;;;;;4933243;29;20047;-69
2023/07/19 08:32:22;;;;;;;3.08;2.88;;;;;;;;;;4931875;29;20040;-69
2023/07/19 08:34:50;;;;;;;4.18;3.80;;;;;;;;;;4933121;29;20127;-70
2023/07/19 08:37:16;;;;;;;3.47;3.20;;;;;;;;;;4933179;29;20103;-69
2023/07/19 08:39:42;;;;;;;3.20;3.00;;;;;;;;;;4932948;29;20058;-70
2023/07/19 08:42:08;;;;;;;3.17;2.97;;;;;;;;;;4933157;29;20046;-69
2023/07/19 08:44:34;;;;;;;7.50;2.75;;;;;;;;;;4933682;29;20035;-70
2023/07/19 08:47:00;;;;;;;2.97;2.72;;;;;;;;;;4932373;29;20078;-73
2023/07/19 08:49:26;;;;;;;2.55;2.42;;;;;;;;;;4932956;29;20039;-70
2023/07/19 08:51:52;;;;;;;2.38;2.25;;;;;;;;;;4933209;29;20118;-70
2023/07/19 08:54:17;;;;;;;2.75;2.55;;;;;;;;;;4931719;29;20134;-69
2023/07/19 08:56:44;;;;;;;3.08;2.88;;;;;;;;;;4932982;29;20139;-70
2023/07/19 08:59:10;;;;;;;4.22;2.80;;;;;;;;;;4932830;29;20047;-69
2023/07/19 09:01:36;;;;;;;2.25;2.15;;;;;;;;;;4932568;29;20039;-70
2023/07/19 09:04:11;;;;;;;2.67;2.50;;;;;;;;;;4931640;29;20038;-71
2023/07/19 09:06:38;;;;;;;4.30;2.25;;;;;;;;;;4932455;29;20079;-71
2023/07/19 09:09:04;;;;;;;4.13;2.58;;;;;;;;;;4915936;29;20130;-70
2023/07/19 09:11:30;;;;;;;2.45;2.25;;;;;;;;;;4931500;29;20131;-71
2023/07/19 09:13:58;;;;;;;2.17;2.08;;;;;;;;;;4932652;29;20047;-71
2023/07/19 09:16:26;;;;;;;2.97;2.42;;;;;;;;;;4932893;29;20066;-71
2023/07/19 09:18:53;;;;;;;2.10;2.00;;;;;;;;;;4932728;29;20036;-69
2023/07/19 09:21:32;;;;;;;2.88;2.50;;;;;;;;;;4933083;29;20388;-71
2023/07/19 09:23:59;;;;;;;3.10;2.55;;;;;;;;;;4936450;29;20127;-71
2023/07/19 09:26:25;;;;;;;3.30;2.70;;;;;;;;;;4936495;29;20043;-71
2023/07/19 09:28:51;;;;;;;2.88;2.67;;;;;;;;;;4936342;29;20082;-72
2023/07/19 09:31:17;;;;;;;2.50;2.40;;;;;;;;;;4936573;29;20071;-72
2023/07/19 09:33:43;;;;;;;2.90;2.60;;;;;;;;;;4936070;29;20090;-71
2023/07/19 09:36:09;;;;;;;1.92;1.83;;;;;;;;;;4935226;29;20040;-72
2023/07/19 09:38:36;;;;;;;2.33;2.05;;;;;;;;;;4936057;29;20048;-72
2023/07/19 09:41:02;;;;;;;2.65;2.45;;;;;;;;;;4936235;29;20542;-72
2023/07/19 09:43:29;;;;;;;6.13;2.53;;;;;;;;;;4936136;29;20036;-72
2023/07/19 09:45:54;;;;;;;2.65;2.20;;;;;;;;;;4936217;29;20039;-72
2023/07/19 09:48:21;;;;;;;3.95;2.50;;;;;;;;;;4936104;29;20047;-72
2023/07/19 09:50:47;;;;;;;2.33;2.22;;;;;;;;;;4936097;29;20046;-71
2023/07/19 09:53:13;;;;;;;1.90;1.80;;;;;;;;;;4935997;29;20510;-71
2023/07/19 09:55:39;;;;;;;1.67;1.58;;;;;;;;;;4935658;29;20063;-71
2023/07/19 09:58:06;;;;;;;2.85;2.10;;;;;;;;;;4935889;29;20036;-72
2023/07/19 10:00:32;;;;;;;4.47;2.38;;;;;;;;;;4918683;29;20081;-72
2023/07/19 10:02:59;;;;;;;2.00;1.90;;;;;;;;;;4918595;29;20035;-72
2023/07/19 10:05:27;;;;;;;4.28;2.10;;;;;;;;;;4935783;29;20053;-71
2023/07/19 10:07:52;;;;;;;2.80;2.50;;;;;;;;;;4935670;29;20035;-70
2023/07/19 10:10:20;;;;;;;2.28;2.08;;;;;;;;;;4935877;29;20502;-71
2023/07/19 10:12:46;;;;;;;4.65;2.25;;;;;;;;;;4935594;29;20173;-71
2023/07/19 10:15:13;;;;;;;4.20;2.03;;;;;;;;;;4935565;29;20046;-71
2023/07/19 10:17:42;;;;;;;2.10;2.00;;;;;;;;;;4935479;29;20051;-71
2023/07/19 10:20:09;;;;;;;1.85;1.77;;;;;;;;;;4935571;29;20075;-73
2023/07/19 10:22:45;;;;;;;2.03;1.92;;;;;;;;;;4935419;29;20032;-73
2023/07/19 10:25:13;;;;;;;2.15;1.77;;;;;;;;;;4934203;29;20126;-70
2023/07/19 10:27:39;;;;;;;1.55;1.45;;;;;;;;;;4935353;29;20577;-71
2023/07/19 10:30:05;;;;;;;2.00;1.80;;;;;;;;;;4935364;29;20043;-70
2023/07/19 10:32:32;;;;;;;2.15;1.98;;;;;;;;;;4934029;29;20046;-72
2023/07/19 10:34:57;;;;;;;2.20;2.00;;;;;;;;;;4935063;29;20506;-71
2023/07/19 10:37:23;;;;;;;5.95;1.92;;;;;;;;;;4935610;29;20046;-70
2023/07/19 10:39:50;;;;;;;1.25;1.23;;;;;;;;;;4935378;29;20584;-72
2023/07/19 10:42:16;;;;;;;3.15;1.50;;;;;;;;;;4935793;29;20090;-71
2023/07/19 10:44:42;;;;;;;1.45;1.45;;;;;;;;;;4935126;29;20078;-72
2023/07/19 10:47:08;;;;;;;4.03;1.90;;;;;;;;;;4934162;29;20091;-71
2023/07/19 10:49:35;;;;;;;2.35;2.15;;;;;;;;;;4935014;29;20094;-72
2023/07/19 10:52:00;;;;;;;8.00;2.25;;;;;;;;;;4936475;29;20043;-71
2023/07/19 10:54:28;;;;;;;1.30;1.30;;;;;;;;;;4935833;29;20422;-71
2023/07/19 10:56:57;;;;;;;7.05;2.20;;;;;;;;;;4934908;29;20039;-72
2023/07/19 10:59:23;;;;;;;3.35;1.98;;;;;;;;;;4934655;29;20047;-69
2023/07/19 11:01:49;;;;;;;3.53;2.10;;;;;;;;;;4934746;29;20048;-71
2023/07/19 11:04:15;;;;;;;2.05;1.60;;;;;;;;;;4934698;29;20482;-72
2023/07/19 11:07:05;;;;;;;2.92;1.88;;;;;;;;;;4934631;29;20050;-71
2023/07/19 11:09:30;;;;;;;1.80;1.67;;;;;;;;;;4934507;29;20056;-72
2023/07/19 11:11:56;;;;;;;2.45;1.90;;;;;;;;;;4934440;29;20040;-71
2023/07/19 11:14:36;;;;;;;5.43;2.20;;;;;;;;;;4933227;29;20498;-72
2023/07/19 11:17:03;;;;;;;1.60;1.58;;;;;;;;;;4934595;29;20048;-72
2023/07/19 11:19:32;;;;;;;1.92;1.83;;;;;;;;;;4948887;29;20111;-70
2023/07/19 11:21:57;;;;;;;1.70;1.60;;;;;;;;;;4933258;29;20046;-71
2023/07/19 11:24:32;;;;;;;1.88;1.70;;;;;;;;;;4934443;29;20040;-72
2023/07/19 11:26:59;;;;;;;2.47;2.28;;;;;;;;;;4934657;29;20050;-70
2023/07/19 11:29:29;;;;;;;1.70;1.60;;;;;;;;;;4934206;29;20101;-72
2023/07/19 11:31:54;;;;;;;1.88;1.77;;;;;;;;;;4935328;29;20036;-72
2023/07/19 11:34:21;;;;;;;2.22;1.80;;;;;;;;;;4935581;29;20035;-71
2023/07/19 11:36:46;;;;;;;2.80;1.95;;;;;;;;;;4934143;29;20046;-72
2023/07/19 11:39:13;;;;;;;4.47;2.40;;;;;;;;;;4934265;29;20040;-71
2023/07/19 11:41:39;;;;;;;1.90;1.80;;;;;;;;;;4932701;29;20035;-71
2023/07/19 11:44:05;;;;;;;1.60;1.50;;;;;;;;;;4932770;29;20131;-71
2023/07/19 11:46:31;;;;;;;5.28;1.85;;;;;;;;;;4933429;29;20125;-71
2023/07/19 11:48:57;;;;;;;1.75;1.50;;;;;;;;;;4934515;29;20409;-73
2023/07/19 11:51:25;;;;;;;2.45;1.70;;;;;;;;;;4933091;29;20518;-71
2023/07/19 11:53:51;;;;;;;1.83;1.65;;;;;;;;;;4933765;29;20065;-70
2023/07/19 11:56:19;;;;;;;1.63;1.60;;;;;;;;;;4933775;29;20062;-70
2023/07/19 11:58:45;;;;;;;2.38;1.75;;;;;;;;;;4933464;29;20454;-70
2023/07/19 12:01:13;;;;;;;1.98;1.88;;;;;;;;;;4933838;29;20054;-72
2023/07/19 12:03:39;;;;;;;2.85;1.95;;;;;;;;;;4932164;29;20467;-70
2023/07/19 12:06:08;;;;;;;3.15;1.75;;;;;;;;;;4933854;29;20035;-71
2023/07/19 12:08:34;;;;;;;1.63;1.52;;;;;;;;;;4933364;29;20032;-71
2023/07/19 12:11:02;;;;;;;3.05;1.80;;;;;;;;;;4933622;29;20075;-71
2023/07/19 12:13:28;;;;;;;10.52;1.85;;;;;;;;;;4932219;29;20130;-71
2023/07/19 12:15:54;;;;;;;2.47;2.10;;;;;;;;;;4933230;29;20552;-71
2023/07/19 12:18:21;;;;;;;3.97;2.13;;;;;;;;;;4931707;29;20046;-72
2023/07/19 12:20:48;;;;;;;3.10;1.80;;;;;;;;;;4932851;29;20051;-72
2023/07/19 12:23:14;;;;;;;3.63;1.88;;;;;;;;;;4933164;29;20083;-71
2023/07/19 12:25:40;;;;;;;2.75;1.95;;;;;;;;;;4933025;29;20035;-70
2023/07/19 12:28:06;;;;;;;1.67;1.50;;;;;;;;;;4948036;29;20133;-71
2023/07/19 12:30:32;;;;;;;1.98;1.58;;;;;;;;;;4933315;29;20039;-71
2023/07/19 12:32:58;;;;;;;2.45;2.05;;;;;;;;;;4933385;29;20510;-71
2023/07/19 12:35:25;;;;;;;1.90;1.80;;;;;;;;;;4931921;29;20052;-72
2023/07/19 12:37:51;;;;;;;3.35;1.70;;;;;;;;;;4933079;29;20515;-71
2023/07/19 12:40:17;;;;;;;6.15;1.60;;;;;;;;;;4933159;29;20138;-71
2023/07/19 12:42:43;;;;;;;2.03;1.92;;;;;;;;;;4932875;29;20040;-71
2023/07/19 12:45:10;;;;;;;5.30;1.80;;;;;;;;;;4931772;29;20051;-72
2023/07/19 12:47:38;;;;;;;4.68;1.80;;;;;;;;;;4932585;29;20032;-71
2023/07/19 12:50:04;;;;;;;2.72;1.80;;;;;;;;;;4931691;29;20051;-71
2023/07/19 12:52:31;;;;;;;2.38;2.15;;;;;;;;;;4931731;29;20044;-71
2023/07/19 12:54:58;;;;;;;5.20;2.33;;;;;;;;;;4932301;29;20063;-72
2023/07/19 12:57:24;;;;;;;2.50;1.63;;;;;;;;;;4932104;29;20042;-71
2023/07/19 12:59:50;;;;;;;2.38;2.17;;;;;;;;;;4932520;29;20529;-71
2023/07/19 13:02:17;;;;;;;1.58;1.48;;;;;;;;;;4932986;29;20039;-71
2023/07/19 13:04:44;;;;;;;1.67;1.58;;;;;;;;;;4932627;29;20070;-70
2023/07/19 13:07:10;;;;;;;3.42;1.60;;;;;;;;;;4932981;29;20138;-71
2023/07/19 13:09:36;;;;;;;1.90;1.70;;;;;;;;;;4932622;29;20032;-71
2023/07/19 13:12:02;;;;;;;3.10;1.90;;;;;;;;;;4932986;29;20083;-71
2023/07/19 13:14:28;;;;;;;1.85;1.70;;;;;;;;;;4932910;29;20074;-72
2023/07/19 13:16:54;;;;;;;3.53;1.70;;;;;;;;;;4932545;29;20039;-72
2023/07/19 13:19:20;;;;;;;1.80;1.60;;;;;;;;;;4932586;29;20433;-71
2023/07/19 13:21:46;;;;;;;2.05;1.95;;;;;;;;;;4932485;29;20098;-70
2023/07/19 13:24:12;;;;;;;6.18;2.00;;;;;;;;;;4932811;29;20139;-72
2023/07/19 13:26:38;;;;;;;5.97;1.92;;;;;;;;;;4932461;29;20518;-71
2023/07/19 13:29:04;;;;;;;3.00;1.90;;;;;;;;;;4932666;29;20036;-71
2023/07/19 13:31:30;;;;;;;1.70;1.60;;;;;;;;;;4932643;29;20036;-72
2023/07/19 13:33:57;;;;;;;6.32;1.45;;;;;;;;;;4932281;29;20047;-71
2023/07/19 13:36:28;;;;;;;1.80;1.70;;;;;;;;;;4931570;29;20039;-71
2023/07/19 13:38:57;;;;;;;2.00;1.83;;;;;;;;;;4931262;29;20039;-71
2023/07/19 13:41:24;;;;;;;4.20;1.80;;;;;;;;;;4932557;29;20518;-72
2023/07/19 13:43:51;;;;;;;3.60;1.52;;;;;;;;;;4932290;29;20035;-70
2023/07/19 13:46:17;;;;;;;1.33;1.23;;;;;;;;;;4915700;29;20526;-71
2023/07/19 13:48:43;;;;;;;2.85;1.55;;;;;;;;;;4932364;29;20100;-71
2023/07/19 13:51:09;;;;;;;4.03;1.90;;;;;;;;;;4932499;29;20039;-71
2023/07/19 13:53:35;;;;;;;9.48;1.80;;;;;;;;;;4932314;29;20047;-71
2023/07/19 13:56:02;;;;;;;1.90;1.35;;;;;;;;;;4946835;29;20841;-72
2023/07/19 13:58:28;;;;;;;1.60;1.50;;;;;;;;;;4932528;29;20589;-71
2023/07/19 14:00:55;;;;;;;2.13;1.30;;;;;;;;;;4930757;29;20044;-71
2023/07/19 14:03:21;;;;;;;3.45;1.50;;;;;;;;;;4932457;29;20038;-71
2023/07/19 14:05:47;;;;;;;2.53;1.38;;;;;;;;;;4931059;29;20049;-72
2023/07/19 14:08:13;;;;;;;4.03;1.90;;;;;;;;;;4933369;29;20063;-71
2023/07/19 14:10:39;;;;;;;1.55;1.45;;;;;;;;;;4935605;29;20051;-72
2023/07/19 14:13:07;;;;;;;3.35;2.25;;;;;;;;;;4936889;29;20035;-71
2023/07/19 14:15:33;;;;;;;1.95;1.77;;;;;;;;;;4935999;29;20514;-71
2023/07/19 14:17:59;;;;;;;2.70;1.33;;;;;;;;;;4935075;29;20533;-71
2023/07/19 14:20:25;;;;;;;2.35;1.90;;;;;;;;;;4936909;29;20043;-72
2023/07/19 14:22:51;;;;;;;2.30;1.48;;;;;;;;;;4935651;29;20126;-71
2023/07/19 14:25:17;;;;;;;4.03;1.80;;;;;;;;;;4935137;29;20039;-72
2023/07/19 14:27:43;;;;;;;4.68;1.63;;;;;;;;;;4933762;29;20099;-70
2023/07/19 14:30:09;;;;;;;2.53;1.60;;;;;;;;;;4949693;29;20047;-71
2023/07/19 14:32:36;;;;;;;2.33;1.48;;;;;;;;;;4935105;29;20123;-71
2023/07/19 14:35:02;;;;;;;2.60;1.52;;;;;;;;;;4917572;29;20051;-71
2023/07/19 14:37:30;;;;;;;4.78;1.80;;;;;;;;;;4935016;29;20046;-72
2023/07/19 14:39:56;;;;;;;3.63;1.50;;;;;;;;;;4934592;29;20122;-72